Time;durP1;ratioP1;P1;durP2;ratioP2;P2;SDS_P1;SDS_P2;PMS_P1;PMS_P2;Temp;Humidity;BMP_temperature;BMP_pressure;BME280_temperature;BME280_humidity;BME280_pressure;Samples;Min_cycle;Max_cycle;Signal;HPM_P1;HPM_P2
2024/02/02 00:00:34;;;;;;;1.50;1.20;;;21.80;65.70;;;;;;4963843;28;20462;-87
2024/02/02 00:03:01;;;;;;;2.50;1.63;;;21.80;65.40;;;;;;4957982;28;20496;-86
2024/02/02 00:05:28;;;;;;;1.47;1.13;;;21.70;65.40;;;;;;4958482;28;20481;-86
2024/02/02 00:07:55;;;;;;;1.53;1.13;;;21.80;65.50;;;;;;4960202;28;20461;-86
2024/02/02 00:10:23;;;;;;;1.40;1.07;;;21.70;65.40;;;;;;4957844;28;20459;-85
2024/02/02 00:12:49;;;;;;;1.43;1.30;;;21.80;65.40;;;;;;4958837;28;26530;-84
2024/02/02 00:15:16;;;;;;;1.40;1.00;;;21.70;65.30;;;;;;4959784;28;21532;-86
2024/02/02 00:17:45;;;;;;;1.40;1.10;;;21.70;65.50;;;;;;4955599;28;20922;-85
2024/02/02 00:20:14;;;;;;;1.73;1.33;;;21.70;65.40;;;;;;4964465;28;20465;-85
2024/02/02 00:22:40;;;;;;;3.03;1.30;;;21.70;65.30;;;;;;4957829;28;20937;-86
2024/02/02 00:25:08;;;;;;;1.30;0.90;;;21.70;65.30;;;;;;4966339;28;20466;-87
2024/02/02 00:27:35;;;;;;;2.03;0.97;;;21.70;65.40;;;;;;4965576;28;20474;-87
2024/02/02 00:30:02;;;;;;;1.87;1.03;;;21.70;65.40;;;;;;4963570;28;20470;-87
2024/02/02 00:32:28;;;;;;;1.97;1.00;;;21.70;65.40;;;;;;4964814;28;22535;-87
2024/02/02 00:34:57;;;;;;;1.90;1.30;;;21.70;65.50;;;;;;4963224;28;20490;-85
2024/02/02 00:37:23;;;;;;;1.47;1.17;;;21.80;65.60;;;;;;4957706;28;20513;-85
2024/02/02 00:39:50;;;;;;;1.70;1.10;;;21.70;65.30;;;;;;4967305;28;20466;-86
2024/02/02 00:42:17;;;;;;;1.67;1.10;;;21.70;65.40;;;;;;4967583;28;20500;-88
2024/02/02 00:44:44;;;;;;;1.87;1.00;;;21.80;65.40;;;;;;4961699;28;21667;-87
2024/02/02 00:47:11;;;;;;;2.50;1.23;;;21.60;65.30;;;;;;4970659;28;20480;-85
2024/02/02 00:49:39;;;;;;;1.73;1.00;;;21.70;65.30;;;;;;4964342;28;20478;-86
2024/02/02 00:52:07;;;;;;;1.30;1.10;;;21.70;65.30;;;;;;4968656;28;20578;-87
2024/02/02 00:54:34;;;;;;;1.30;0.90;;;21.70;65.60;;;;;;4966548;28;20999;-85
2024/02/02 00:57:00;;;;;;;2.27;1.50;;;21.70;65.40;;;;;;4962846;28;20450;-83
2024/02/02 00:59:27;;;;;;;4.83;1.63;;;21.70;65.50;;;;;;4951192;28;20469;-85
2024/02/02 01:01:54;;;;;;;2.83;1.03;;;21.70;65.40;;;;;;4961614;28;21400;-83
2024/02/02 01:04:21;;;;;;;1.53;0.97;;;21.70;65.50;;;;;;4958580;28;20461;-85
2024/02/02 01:06:48;;;;;;;1.40;1.10;;;21.70;65.60;;;;;;4956589;28;20461;-84
2024/02/02 01:09:16;;;;;;;1.60;1.23;;;21.70;66.40;;;;;;4960042;28;20531;-84
2024/02/02 01:11:43;;;;;;;1.47;0.90;;;21.80;65.50;;;;;;4958055;28;20474;-83
2024/02/02 01:14:09;;;;;;;2.00;1.33;;;21.80;65.60;;;;;;4965266;28;20478;-86
2024/02/02 01:16:36;;;;;;;1.33;0.90;;;21.70;65.50;;;;;;4961054;28;20461;-84
2024/02/02 01:19:03;;;;;;;2.47;1.07;;;21.70;65.60;;;;;;4964467;28;20482;-85
2024/02/02 01:21:30;;;;;;;1.83;1.03;;;21.70;65.50;;;;;;4965537;28;21082;-83
2024/02/02 01:23:57;;;;;;;1.80;0.93;;;21.70;65.50;;;;;;4965358;28;20519;-84
2024/02/02 01:26:25;;;;;;;2.20;1.23;;;21.60;65.40;;;;;;4963604;28;20461;-86
2024/02/02 01:28:52;;;;;;;2.70;1.33;;;21.60;65.30;;;;;;4962436;28;20465;-83
2024/02/02 01:31:18;;;;;;;1.37;1.13;;;21.60;66.20;;;;;;4962878;28;21012;-83
2024/02/02 01:33:45;;;;;;;1.27;0.90;;;21.60;65.30;;;;;;4969106;28;20465;-85
2024/02/02 01:36:12;;;;;;;1.23;0.90;;;21.60;65.30;;;;;;4965725;28;20474;-85
2024/02/02 01:38:39;;;;;;;2.05;1.15;;;21.60;65.40;;;;;;4960544;28;21602;-84
2024/02/02 01:41:06;;;;;;;2.03;1.17;;;21.60;65.30;;;;;;4966082;28;20286;-84
2024/02/02 01:43:34;;;;;;;2.67;1.48;;;21.60;65.30;;;;;;4969056;28;20965;-82
2024/02/02 01:46:00;;;;;;;2.90;0.97;;;21.60;66.10;;;;;;4971783;28;20211;-82
2024/02/02 01:48:27;;;;;;;1.93;1.10;;;21.60;65.40;;;;;;4970224;28;20600;-84
2024/02/02 01:50:54;;;;;;;1.40;1.00;;;21.60;65.30;;;;;;4969996;28;20458;-86
2024/02/02 01:53:21;;;;;;;1.13;0.80;;;21.50;65.40;;;;;;4966976;28;20450;-84
2024/02/02 01:55:48;;;;;;;1.43;1.03;;;21.50;65.40;;;;;;4967312;28;20506;-82
2024/02/02 01:58:15;;;;;;;2.03;1.10;;;21.50;65.30;;;;;;4967213;28;20492;-84
2024/02/02 02:00:44;;;;;;;1.67;0.97;;;21.60;65.40;;;;;;4967347;28;20593;-86
2024/02/02 02:03:11;;;;;;;1.83;1.17;;;21.50;65.30;;;;;;4968017;28;26477;-86
2024/02/02 02:05:38;;;;;;;1.20;1.00;;;21.50;65.40;;;;;;4967514;28;26955;-83
2024/02/02 02:08:06;;;;;;;1.13;1.00;;;21.50;65.40;;;;;;4973324;28;20494;-82
2024/02/02 02:10:33;;;;;;;1.83;1.00;;;21.50;65.40;;;;;;4968231;28;26619;-85
2024/02/02 02:13:00;;;;;;;1.83;1.30;;;21.50;65.40;;;;;;4975065;28;20450;-86
2024/02/02 02:15:26;;;;;;;4.30;1.10;;;21.50;65.40;;;;;;4966299;28;21489;-83
2024/02/02 02:17:55;;;;;;;1.15;1.00;;;21.40;65.30;;;;;;4972058;28;21496;-83
2024/02/02 02:20:25;;;;;;;1.10;0.80;;;21.40;65.40;;;;;;4971712;28;20203;-86
2024/02/02 02:22:53;;;;;;;1.80;1.10;;;21.40;65.30;;;;;;4972986;28;20266;-85
2024/02/02 02:25:20;;;;;;;1.57;1.20;;;21.40;65.40;;;;;;4971870;28;20645;-85
2024/02/02 02:27:47;;;;;;;2.17;1.40;;;21.40;65.40;;;;;;4969669;28;20508;-84
2024/02/02 02:30:14;;;;;;;1.87;1.07;;;21.40;65.40;;;;;;4967228;28;20955;-86
2024/02/02 02:32:42;;;;;;;1.50;1.23;;;21.40;65.40;;;;;;4967802;28;20470;-87
2024/02/02 02:35:09;;;;;;;1.60;1.10;;;21.30;65.30;;;;;;4962266;28;20207;-85
2024/02/02 02:37:36;;;;;;;2.37;1.20;;;21.40;65.50;;;;;;4963992;28;20462;-85
2024/02/02 02:40:05;;;;;;;1.30;1.00;;;21.30;65.40;;;;;;4963182;28;20465;-83
2024/02/02 02:42:32;;;;;;;1.60;0.90;;;21.30;65.40;;;;;;4961733;28;20458;-84
2024/02/02 02:44:59;;;;;;;2.20;1.20;;;21.30;65.30;;;;;;4965065;28;20469;-83
2024/02/02 02:47:26;;;;;;;2.30;0.97;;;21.30;65.40;;;;;;4960955;28;20460;-83
2024/02/02 02:49:53;;;;;;;2.13;1.00;;;21.30;65.50;;;;;;4960229;28;20458;-83
2024/02/02 02:52:20;;;;;;;1.10;0.83;;;21.30;65.50;;;;;;4969196;28;20534;-83
2024/02/02 02:54:46;;;;;;;1.50;0.90;;;21.30;65.50;;;;;;4959717;28;21612;-84
2024/02/02 02:57:14;;;;;;;1.50;1.07;;;21.30;65.60;;;;;;4964708;28;20466;-84
2024/02/02 02:59:42;;;;;;;1.63;1.43;;;21.30;65.60;;;;;;4961551;28;20629;-83
2024/02/02 03:02:08;;;;;;;3.40;1.10;;;21.30;65.60;;;;;;4965449;28;20473;-84
2024/02/02 03:04:35;;;;;;;1.20;1.00;;;21.20;65.50;;;;;;4959591;28;20462;-84
2024/02/02 03:07:04;;;;;;;1.10;0.80;;;21.20;65.60;;;;;;4965564;28;20478;-86
2024/02/02 03:09:32;;;;;;;1.67;1.02;;;21.20;65.60;;;;;;4965998;28;21178;-84
2024/02/02 03:11:59;;;;;;;2.00;0.90;;;21.20;65.60;;;;;;4961405;28;20487;-85
2024/02/02 03:14:27;;;;;;;1.77;1.10;;;21.20;65.60;;;;;;4957976;28;21144;-83
2024/02/02 03:16:54;;;;;;;1.47;0.90;;;21.20;66.40;;;;;;4967302;28;20932;-85
2024/02/02 03:19:21;;;;;;;1.10;0.93;;;21.20;65.70;;;;;;4957544;28;20482;-85
2024/02/02 03:21:47;;;;;;;1.53;0.80;;;21.10;65.60;;;;;;4966250;28;20799;-83
2024/02/02 03:24:14;;;;;;;2.10;0.97;;;21.10;65.60;;;;;;4963674;28;21038;-84
2024/02/02 03:26:41;;;;;;;2.00;1.20;;;21.10;65.70;;;;;;4962265;28;20475;-84
2024/02/02 03:29:08;;;;;;;2.10;1.10;;;21.10;65.70;;;;;;4957102;28;21543;-84
2024/02/02 03:31:36;;;;;;;1.83;1.40;;;21.10;65.70;;;;;;4963215;28;20201;-85
2024/02/02 03:34:03;;;;;;;1.40;0.90;;;21.10;65.70;;;;;;4962265;28;20470;-85
2024/02/02 03:36:29;;;;;;;2.10;1.20;;;21.10;65.70;;;;;;4959857;28;20562;-84
2024/02/02 03:38:56;;;;;;;1.73;1.00;;;21.10;65.80;;;;;;4967977;28;20215;-83
2024/02/02 03:41:23;;;;;;;1.65;1.10;;;21.10;65.80;;;;;;4964976;28;26374;-84
2024/02/02 03:43:51;;;;;;;2.50;1.37;;;21.00;65.60;;;;;;4960991;28;20275;-83
2024/02/02 03:46:19;;;;;;;1.20;1.00;;;21.00;65.60;;;;;;4960936;28;20576;-84
2024/02/02 03:48:48;;;;;;;1.10;0.90;;;21.00;65.70;;;;;;4962177;28;20204;-85
2024/02/02 03:51:15;;;;;;;2.45;1.00;;;21.00;65.70;;;;;;4956943;28;20207;-85
2024/02/02 03:53:41;;;;;;;2.40;1.40;;;21.00;65.70;;;;;;4963761;28;20677;-85
2024/02/02 03:56:08;;;;;;;1.30;1.05;;;21.00;65.80;;;;;;4961253;28;20804;-84
2024/02/02 03:58:35;;;;;;;1.90;1.08;;;21.00;65.70;;;;;;4964678;28;20221;-84
2024/02/02 04:01:02;;;;;;;1.73;1.03;;;21.00;65.80;;;;;;4959806;28;20205;-84
2024/02/02 04:03:32;;;;;;;1.92;1.00;;;21.00;65.80;;;;;;4963715;28;21730;-83
2024/02/02 04:06:00;;;;;;;1.58;1.02;;;21.00;65.90;;;;;;4958428;28;20223;-83
2024/02/02 04:08:27;;;;;;;1.70;1.00;;;20.90;65.80;;;;;;4963839;28;20800;-84
2024/02/02 04:10:54;;;;;;;1.60;1.47;;;20.90;65.90;;;;;;4959790;28;20531;-83
2024/02/02 04:13:21;;;;;;;1.77;1.17;;;20.90;65.70;;;;;;4962869;28;20463;-83
2024/02/02 04:15:48;;;;;;;1.42;0.90;;;20.90;65.80;;;;;;4961412;28;20460;-84
2024/02/02 04:18:15;;;;;;;1.83;1.52;;;20.90;65.90;;;;;;4957163;28;20223;-84
2024/02/02 04:20:41;;;;;;;1.73;0.80;;;20.90;65.90;;;;;;4960709;28;20204;-84
2024/02/02 04:23:09;;;;;;;1.27;1.17;;;20.90;65.90;;;;;;4959812;28;20462;-82
2024/02/02 04:25:36;;;;;;;1.15;0.82;;;20.90;65.90;;;;;;4960241;28;20596;-84
2024/02/02 04:28:05;;;;;;;1.10;0.90;;;20.90;66.20;;;;;;4958602;28;20215;-86
2024/02/02 04:30:32;;;;;;;1.45;0.75;;;20.90;65.90;;;;;;4959737;28;20213;-85
2024/02/02 04:32:59;;;;;;;1.20;1.00;;;20.90;66.00;;;;;;4961983;28;20289;-82
2024/02/02 04:35:26;;;;;;;1.73;1.30;;;20.90;65.90;;;;;;4956143;28;20473;-84
2024/02/02 04:37:53;;;;;;;2.55;1.27;;;20.90;66.10;;;;;;4966407;28;20493;-84
2024/02/02 04:40:21;;;;;;;1.45;1.10;;;20.90;66.10;;;;;;4962379;28;20234;-83
2024/02/02 04:42:47;;;;;;;1.60;1.08;;;20.90;66.00;;;;;;4961311;28;22594;-84
2024/02/02 04:45:14;;;;;;;2.00;1.00;;;20.80;65.90;;;;;;4960704;28;21148;-83
2024/02/02 04:47:41;;;;;;;1.90;1.13;;;20.80;66.00;;;;;;4962816;28;21234;-85
2024/02/02 04:50:09;;;;;;;1.52;0.90;;;20.80;65.90;;;;;;4963210;28;20652;-84
2024/02/02 04:52:36;;;;;;;1.42;0.82;;;20.80;66.00;;;;;;4956079;28;20310;-84
2024/02/02 04:55:02;;;;;;;1.45;0.80;;;20.80;66.80;;;;;;4959261;28;21351;-84
2024/02/02 04:57:30;;;;;;;2.60;1.25;;;20.80;66.10;;;;;;4956018;28;20230;-85
2024/02/02 04:59:57;;;;;;;1.70;0.90;;;20.80;66.10;;;;;;4958055;28;20232;-83
2024/02/02 05:02:24;;;;;;;1.30;0.93;;;20.80;66.20;;;;;;4965019;28;20573;-84
2024/02/02 05:04:51;;;;;;;1.70;1.25;;;20.80;66.20;;;;;;4963497;28;20199;-84
2024/02/02 05:07:18;;;;;;;1.42;0.90;;;20.70;66.10;;;;;;4953874;28;20210;-83
2024/02/02 05:09:45;;;;;;;1.40;1.05;;;20.70;66.10;;;;;;4959730;28;20200;-84
2024/02/02 05:12:15;;;;;;;1.67;0.98;;;20.80;66.20;;;;;;4961685;28;20219;-84
2024/02/02 05:14:43;;;;;;;1.45;1.05;;;20.70;66.60;;;;;;4955009;28;20257;-82
2024/02/02 05:17:10;;;;;;;1.30;0.90;;;20.70;66.00;;;;;;4964057;28;20216;-82
2024/02/02 05:19:36;;;;;;;1.27;0.90;;;20.70;66.10;;;;;;4956750;28;20230;-84
2024/02/02 05:22:03;;;;;;;1.58;0.80;;;20.70;66.10;;;;;;4962640;28;20516;-83
2024/02/02 05:24:30;;;;;;;1.60;1.00;;;20.70;66.10;;;;;;4960805;28;20682;-83
2024/02/02 05:26:57;;;;;;;1.10;0.98;;;20.70;66.10;;;;;;4964352;28;20207;-85
2024/02/02 05:29:24;;;;;;;1.30;0.90;;;20.70;66.20;;;;;;4963493;28;21258;-85
2024/02/02 05:31:52;;;;;;;1.30;0.90;;;20.70;66.10;;;;;;4960155;28;20204;-85
2024/02/02 05:34:19;;;;;;;2.20;1.10;;;20.70;66.20;;;;;;4961567;28;21178;-84
2024/02/02 05:36:45;;;;;;;1.30;1.20;;;20.70;66.20;;;;;;4960917;28;20211;-84
2024/02/02 05:39:13;;;;;;;2.10;1.10;;;20.70;66.20;;;;;;4958807;28;20223;-84
2024/02/02 05:41:39;;;;;;;1.55;0.90;;;20.70;66.30;;;;;;4958779;28;20210;-83
2024/02/02 05:44:06;;;;;;;1.23;1.00;;;20.70;66.20;;;;;;4966099;28;20209;-84
2024/02/02 05:46:33;;;;;;;2.05;1.42;;;20.70;66.20;;;;;;4962104;28;20474;-85
2024/02/02 05:49:01;;;;;;;1.00;0.90;;;20.60;66.90;;;;;;4967026;28;20199;-84
2024/02/02 05:51:28;;;;;;;1.40;1.00;;;20.70;66.20;;;;;;4963005;28;20807;-87
2024/02/02 05:53:55;;;;;;;2.30;1.30;;;20.60;66.10;;;;;;4965946;28;20219;-85
2024/02/02 05:56:22;;;;;;;2.40;1.00;;;20.60;66.10;;;;;;4965907;28;20203;-86
2024/02/02 05:58:48;;;;;;;1.30;0.88;;;20.60;66.20;;;;;;4966719;28;21237;-84
2024/02/02 06:01:16;;;;;;;1.27;1.15;;;20.60;66.10;;;;;;4965744;28;26164;-86
2024/02/02 06:03:43;;;;;;;1.53;1.30;;;20.60;66.10;;;;;;4965171;28;20306;-84
2024/02/02 06:06:11;;;;;;;1.70;1.00;;;20.60;66.10;;;;;;4966426;28;20473;-85
2024/02/02 06:08:38;;;;;;;1.30;1.00;;;20.60;66.10;;;;;;4965308;28;20464;-84
2024/02/02 06:11:05;;;;;;;1.13;0.90;;;20.60;66.30;;;;;;4965368;28;20462;-83
2024/02/02 06:13:33;;;;;;;1.23;0.90;;;20.60;66.30;;;;;;4966845;28;20211;-84
2024/02/02 06:16:00;;;;;;;1.37;1.00;;;20.60;66.20;;;;;;4954720;28;20343;-86
2024/02/02 06:18:27;;;;;;;1.50;1.00;;;20.60;66.20;;;;;;4960348;28;20458;-84
2024/02/02 06:20:54;;;;;;;1.45;1.15;;;20.60;66.20;;;;;;4959517;28;20228;-84
2024/02/02 06:23:21;;;;;;;1.10;0.90;;;20.60;66.20;;;;;;4959927;28;20385;-84
2024/02/02 06:25:48;;;;;;;2.53;1.40;;;20.60;66.20;;;;;;4960773;28;20204;-85
2024/02/02 06:28:15;;;;;;;1.13;0.90;;;20.60;66.30;;;;;;4963911;28;21129;-84
2024/02/02 06:30:42;;;;;;;1.30;1.00;;;20.60;66.30;;;;;;4959283;28;20303;-84
2024/02/02 06:33:11;;;;;;;1.15;0.80;;;20.60;67.00;;;;;;4959306;28;20808;-84
2024/02/02 06:35:37;;;;;;;2.03;0.90;;;20.60;66.30;;;;;;4964424;28;20842;-84
2024/02/02 06:38:04;;;;;;;1.60;1.10;;;20.60;66.30;;;;;;4962936;28;20466;-84
2024/02/02 06:40:33;;;;;;;1.33;1.00;;;20.60;66.30;;;;;;4959890;28;20245;-85
2024/02/02 06:43:00;;;;;;;1.15;1.02;;;20.60;66.40;;;;;;4958080;28;20299;-86
2024/02/02 06:45:27;;;;;;;1.02;0.93;;;20.60;66.30;;;;;;4965614;28;21276;-86
2024/02/02 06:47:54;;;;;;;1.20;1.10;;;20.50;66.30;;;;;;4953354;28;21320;-85
2024/02/02 06:50:21;;;;;;;2.42;1.20;;;20.50;66.30;;;;;;4958959;28;20497;-83
2024/02/02 06:52:48;;;;;;;1.63;1.33;;;20.50;66.20;;;;;;4960342;28;20211;-83
2024/02/02 06:55:15;;;;;;;1.10;0.90;;;20.50;66.30;;;;;;4953668;28;20287;-85
2024/02/02 06:57:43;;;;;;;1.40;1.10;;;20.50;66.30;;;;;;4958522;28;20326;-81
2024/02/02 07:00:14;;;;;;;1.05;0.85;;;20.50;66.30;;;;;;4951904;28;20998;-86
2024/02/02 07:02:41;;;;;;;1.40;1.00;;;20.50;66.30;;;;;;4953859;28;20255;-84
2024/02/02 07:05:08;;;;;;;1.40;1.00;;;20.50;66.30;;;;;;4956876;28;20239;-84
2024/02/02 07:07:35;;;;;;;1.63;0.90;;;20.50;66.40;;;;;;4951914;28;20210;-82
2024/02/02 07:10:04;;;;;;;1.13;0.80;;;20.50;66.20;;;;;;4954228;28;21182;-84
2024/02/02 07:13:07;;;;;;;1.23;0.77;;;20.50;66.30;;;;;;4958923;28;20318;-84
2024/02/02 07:15:40;;;;;;;1.00;0.70;;;20.50;66.30;;;;;;4959401;28;20204;-85
2024/02/02 07:18:26;;;;;;;1.40;1.00;;;20.40;66.20;;;;;;4954228;28;20203;-84
2024/02/02 07:21:03;;;;;;;1.25;0.90;;;20.40;66.30;;;;;;4953340;28;20251;-85
2024/02/02 07:23:41;;;;;;;1.20;0.70;;;20.40;66.30;;;;;;4961845;28;20203;-84
2024/02/02 07:26:19;;;;;;;1.20;0.97;;;20.40;66.30;;;;;;4957885;28;20473;-86
2024/02/02 07:28:46;;;;;;;1.42;1.25;;;20.40;66.30;;;;;;4957896;28;20466;-85
2024/02/02 07:31:29;;;;;;;1.85;1.33;;;20.40;67.00;;;;;;4957407;28;26254;-84
2024/02/02 07:34:02;;;;;;;1.65;1.00;;;20.40;66.50;;;;;;4950564;28;20860;-86
2024/02/02 07:36:32;;;;;;;1.40;1.20;;;20.40;66.50;;;;;;4957608;28;20207;-85
2024/02/02 07:38:59;;;;;;;1.52;1.17;;;20.40;66.40;;;;;;4958356;28;21473;-86
2024/02/02 07:41:27;;;;;;;1.48;1.00;;;20.40;66.40;;;;;;4961672;28;20785;-87
2024/02/02 07:43:55;;;;;;;1.20;0.97;;;20.40;66.40;;;;;;4959110;28;20207;-86
2024/02/02 07:46:24;;;;;;;1.30;1.10;;;20.50;66.50;;;;;;4961834;28;20479;-87
2024/02/02 07:48:52;;;;;;;1.65;1.02;;;20.50;66.60;;;;;;4964596;28;21337;-87
2024/02/02 07:51:22;;;;;;;1.20;0.80;;;20.50;66.50;;;;;;4960024;28;20235;-84
2024/02/02 07:53:49;;;;;;;1.20;0.90;;;20.50;66.60;;;;;;4961085;28;20235;-85
2024/02/02 07:56:17;;;;;;;1.65;1.27;;;20.50;66.50;;;;;;4962655;28;20231;-86
2024/02/02 07:58:44;;;;;;;1.05;0.80;;;20.50;66.50;;;;;;4957796;28;20203;-86
2024/02/02 08:01:12;;;;;;;1.02;0.85;;;20.50;66.70;;;;;;4963483;28;20221;-87
2024/02/02 08:03:40;;;;;;;1.60;0.80;;;20.50;66.50;;;;;;4960160;28;20208;-86
2024/02/02 08:06:07;;;;;;;1.58;1.10;;;20.60;66.70;;;;;;4955193;28;21114;-84
2024/02/02 08:08:35;;;;;;;1.70;1.20;;;20.60;66.70;;;;;;4959916;28;20208;-86
2024/02/02 08:11:03;;;;;;;1.58;1.00;;;20.60;66.70;;;;;;4956961;28;20226;-84
2024/02/02 08:13:30;;;;;;;1.37;1.03;;;20.60;66.70;;;;;;4961715;28;20254;-87
2024/02/02 08:15:57;;;;;;;1.52;1.10;;;20.60;66.70;;;;;;4958788;28;20462;-86
2024/02/02 08:18:23;;;;;;;1.10;0.90;;;20.60;66.70;;;;;;4959912;28;20214;-84
2024/02/02 08:20:52;;;;;;;5.32;1.05;;;20.60;66.60;;;;;;4953048;28;20220;-83
2024/02/02 08:23:18;;;;;;;2.38;1.45;;;20.60;66.90;;;;;;4954479;28;20207;-88
2024/02/02 08:25:45;;;;;;;2.03;0.90;;;20.60;67.10;;;;;;4955884;28;20239;-88
2024/02/02 08:28:12;;;;;;;2.25;0.80;;;20.60;67.00;;;;;;4944417;28;20566;-83
2024/02/02 08:30:39;;;;;;;3.43;1.37;;;20.70;67.30;;;;;;4929976;28;20200;-83
2024/02/02 08:33:06;;;;;;;3.23;0.90;;;20.70;67.30;;;;;;4930196;28;20477;-84
2024/02/02 08:35:32;;;;;;;6.05;1.10;;;20.70;67.40;;;;;;4935020;28;20458;-84
2024/02/02 08:38:02;;;;;;;1.27;0.97;;;20.70;67.70;;;;;;4928631;28;20239;-82
2024/02/02 08:40:48;;;;;;;2.20;1.03;;;20.70;67.70;;;;;;4937561;28;20481;-84
2024/02/02 08:43:17;;;;;;;2.95;0.90;;;20.80;68.00;;;;;;4939293;28;20494;-84
2024/02/02 08:46:04;;;;;;;1.93;0.87;;;20.80;68.00;;;;;;4937456;28;20914;-85
2024/02/02 08:48:37;;;;;;;0.93;0.70;;;20.80;68.90;;;;;;4932425;28;21228;-82
2024/02/02 08:51:26;;;;;;;1.60;1.10;;;20.80;68.80;;;;;;4939420;28;21135;-82
2024/02/02 08:54:07;;;;;;;8.20;1.10;;;20.90;67.90;;;;;;4941632;28;20326;-81
2024/02/02 08:56:34;;;;;;;1.23;0.90;;;20.90;67.90;;;;;;4940753;28;20486;-82
2024/02/02 08:59:00;;;;;;;10.53;1.27;;;20.90;67.90;;;;;;4943599;28;20547;-82
2024/02/02 09:01:40;;;;;;;1.42;0.95;;;20.90;67.80;;;;;;4939855;28;21368;-81
2024/02/02 09:04:24;;;;;;;1.10;0.80;;;20.90;67.80;;;;;;4940026;28;20204;-83
2024/02/02 09:06:51;;;;;;;1.23;1.00;;;20.90;67.70;;;;;;4946106;28;20467;-82
2024/02/02 09:09:20;;;;;;;1.40;1.00;;;20.90;67.90;;;;;;4947229;28;20513;-80
2024/02/02 09:11:50;;;;;;;1.50;1.17;;;20.90;67.50;;;;;;4943456;28;21291;-81
2024/02/02 09:14:17;;;;;;;1.60;1.05;;;21.00;67.50;;;;;;4936995;28;20456;-81
2024/02/02 09:16:47;;;;;;;1.20;0.80;;;21.00;67.50;;;;;;4936285;28;20799;-82
2024/02/02 09:19:27;;;;;;;1.47;1.00;;;21.00;67.50;;;;;;4944102;28;20469;-82
2024/02/02 09:21:55;;;;;;;1.00;0.80;;;21.00;67.30;;;;;;4930867;28;20520;-80
2024/02/02 09:24:43;;;;;;;1.10;0.70;;;21.00;68.10;;;;;;4937463;28;20462;-82
2024/02/02 09:27:31;;;;;;;1.50;0.80;;;21.00;67.20;;;;;;4936487;28;20219;-82
2024/02/02 09:29:59;;;;;;;1.50;0.97;;;21.00;67.10;;;;;;4938971;28;22347;-82
2024/02/02 09:32:28;;;;;;;1.77;0.93;;;21.00;67.00;;;;;;4933383;28;20613;-82
2024/02/02 09:34:58;;;;;;;1.20;0.80;;;21.00;67.00;;;;;;4938420;28;20458;-82
2024/02/02 09:37:30;;;;;;;1.40;1.00;;;21.00;67.00;;;;;;4940904;28;20462;-81
2024/02/02 09:39:59;;;;;;;1.97;0.97;;;21.00;66.90;;;;;;4939436;28;20688;-82
2024/02/02 09:42:59;;;;;;;1.30;1.08;;;21.10;67.10;;;;;;4941537;28;20462;-82
2024/02/02 09:45:48;;;;;;;1.30;0.80;;;21.10;66.90;;;;;;4940356;28;20203;-82
2024/02/02 09:48:25;;;;;;;1.20;1.10;;;21.10;66.90;;;;;;4932907;28;20494;-82
2024/02/02 09:51:00;;;;;;;2.00;1.13;;;21.10;66.90;;;;;;4943828;28;20477;-84
2024/02/02 09:53:49;;;;;;;6.10;1.60;;;21.10;66.80;;;;;;4952974;28;20457;-83
2024/02/02 09:56:23;;;;;;;2.30;1.20;;;21.10;66.90;;;;;;4943573;28;20961;-85
2024/02/02 09:58:56;;;;;;;1.50;0.90;;;21.10;67.00;;;;;;4949198;28;20911;-89
2024/02/02 10:01:40;;;;;;;1.48;0.93;;;21.10;67.30;;;;;;4954046;28;20219;-86
2024/02/02 10:04:20;;;;;;;1.50;1.00;;;21.20;67.60;;;;;;4945915;28;21075;-85
2024/02/02 10:07:01;;;;;;;11.60;1.10;;;21.20;67.40;;;;;;4957481;28;20217;-85
2024/02/02 10:09:43;;;;;;;2.80;1.90;;;21.30;67.60;;;;;;4953229;28;21402;-86
2024/02/02 10:12:30;;;;;;;4.77;2.40;;;21.20;66.20;;;;;;4952201;28;20453;-86
2024/02/02 10:15:27;;;;;;;4.53;2.37;;;21.20;66.00;;;;;;4947127;28;20470;-86
2024/02/02 10:18:14;;;;;;;7.25;2.33;;;21.20;66.00;;;;;;4954350;28;20926;-88
2024/02/02 10:20:46;;;;;;;3.93;1.80;;;21.20;66.60;;;;;;4955151;28;26571;-89
2024/02/02 10:23:37;;;;;;;6.13;2.17;;;21.20;66.70;;;;;;4973161;28;20585;-88
2024/02/02 10:26:22;;;;;;;3.20;2.70;;;21.20;67.20;;;;;;4956207;28;20886;-88
2024/02/02 10:28:59;;;;;;;4.23;2.33;;;21.20;66.50;;;;;;4958915;28;20486;-88
2024/02/02 10:31:52;;;;;;;6.45;2.63;;;21.30;66.70;;;;;;4963347;28;20453;-87
2024/02/02 10:34:40;;;;;;;1.97;1.77;;;21.30;66.80;;;;;;4959645;28;20228;-88
2024/02/02 10:37:23;;;;;;;3.20;2.20;;;21.30;66.90;;;;;;4962341;28;20465;-88
2024/02/02 10:40:02;;;;;;;7.20;1.97;;;21.30;67.00;;;;;;4963504;28;20537;-91
2024/02/02 10:42:39;;;;;;;6.40;2.67;;;21.40;67.20;;;;;;4966811;28;20448;-88
2024/02/02 10:45:14;;;;;;;3.73;2.27;;;21.40;67.10;;;;;;4961253;28;20493;-89
2024/02/02 10:47:55;;;;;;;3.63;2.50;;;21.40;67.30;;;;;;4962189;28;20459;-91
2024/02/02 10:50:33;;;;;;;5.23;2.77;;;21.40;67.30;;;;;;4958403;28;21108;-87
2024/02/02 10:53:11;;;;;;;4.03;2.27;;;21.40;67.30;;;;;;4973425;28;20454;-89
2024/02/02 10:55:49;;;;;;;5.07;2.57;;;21.40;67.30;;;;;;4968937;28;20583;-92
2024/02/02 10:58:30;;;;;;;5.07;2.03;;;21.50;67.50;;;;;;4995257;28;20469;-93
2024/02/02 11:01:20;;;;;;;4.90;2.23;;;21.40;67.40;;;;;;4973846;28;20478;-92
2024/02/02 11:03:56;;;;;;;3.80;2.23;;;21.50;68.00;;;;;;4966896;28;20450;-91
2024/02/02 11:06:30;;;;;;;4.50;2.67;;;22.20;68.40;;;;;;4981194;28;20453;-92
2024/02/02 11:09:04;;;;;;;5.70;3.10;;;20.60;67.00;;;;;;4978933;28;20615;-91
2024/02/02 11:11:36;;;;;;;4.37;2.57;;;21.60;68.60;;;;;;4963294;28;20454;-92
2024/02/02 11:14:12;;;;;;;6.13;2.27;;;21.70;67.80;;;;;;4953780;28;20465;-86
2024/02/02 11:16:51;;;;;;;3.60;2.43;;;21.60;67.70;;;;;;4944278;28;21614;-87
2024/02/02 11:19:26;;;;;;;5.90;2.60;;;21.60;67.70;;;;;;4950588;28;21665;-86
2024/02/02 11:22:10;;;;;;;3.60;2.30;;;21.70;67.80;;;;;;4959859;28;20923;-87
2024/02/02 11:24:50;;;;;;;3.10;2.37;;;21.70;67.80;;;;;;4963254;28;20442;-89
2024/02/02 11:27:23;;;;;;;4.07;2.20;;;21.70;67.80;;;;;;4946824;28;20477;-85
2024/02/02 11:30:00;;;;;;;5.50;2.70;;;21.70;66.70;;;;;;4935654;28;20473;-86
2024/02/02 11:32:43;;;;;;;3.80;2.27;;;21.70;67.00;;;;;;4936256;28;20501;-85
2024/02/02 11:35:15;;;;;;;3.53;2.27;;;21.70;67.20;;;;;;4935630;28;20508;-86
2024/02/02 11:37:56;;;;;;;4.37;2.30;;;21.70;67.20;;;;;;4941387;28;20472;-84
2024/02/02 11:40:26;;;;;;;3.33;2.47;;;21.80;67.30;;;;;;4944136;28;21147;-86
2024/02/02 11:42:55;;;;;;;4.10;2.70;;;21.80;67.50;;;;;;4934339;28;20454;-84
2024/02/02 11:45:26;;;;;;;3.10;2.50;;;21.80;67.30;;;;;;4947486;28;20462;-87
2024/02/02 11:47:59;;;;;;;3.93;2.10;;;21.80;67.20;;;;;;4946605;28;20466;-87
2024/02/02 11:50:31;;;;;;;3.20;2.73;;;21.90;67.40;;;;;;4944376;28;20936;-86
2024/02/02 11:53:09;;;;;;;4.40;2.33;;;21.90;67.40;;;;;;4951577;28;21304;-87
2024/02/02 11:55:41;;;;;;;5.53;2.83;;;21.90;67.30;;;;;;4951066;28;20468;-87
2024/02/02 11:58:10;;;;;;;3.13;2.50;;;22.00;67.50;;;;;;4948754;28;20540;-87
2024/02/02 12:00:56;;;;;;;3.23;2.17;;;22.00;67.70;;;;;;4945390;28;20470;-87
2024/02/02 12:03:31;;;;;;;3.80;2.40;;;22.00;67.40;;;;;;4945964;28;21789;-88
2024/02/02 12:06:09;;;;;;;3.60;2.60;;;22.10;67.50;;;;;;4945641;28;20486;-86
2024/02/02 12:08:43;;;;;;;4.50;1.90;;;22.10;67.50;;;;;;4941941;28;20458;-85
2024/02/02 12:11:13;;;;;;;3.73;2.60;;;22.10;67.30;;;;;;4940659;28;20458;-86
2024/02/02 12:13:42;;;;;;;3.90;2.20;;;22.10;67.30;;;;;;4941872;28;20470;-86
2024/02/02 12:16:10;;;;;;;3.83;2.50;;;22.20;67.30;;;;;;4939316;28;21250;-86
2024/02/02 12:18:38;;;;;;;4.27;2.43;;;22.20;67.30;;;;;;4940877;28;20470;-86
2024/02/02 12:21:11;;;;;;;2.80;2.10;;;22.20;67.30;;;;;;4940055;28;20481;-84
2024/02/02 12:23:38;;;;;;;6.70;2.57;;;22.20;67.20;;;;;;4939397;28;21044;-85
2024/02/02 12:26:06;;;;;;;4.23;2.27;;;22.20;66.90;;;;;;4944814;28;20509;-84
2024/02/02 12:28:33;;;;;;;2.33;2.03;;;22.20;67.00;;;;;;4940257;28;21317;-85
2024/02/02 12:31:00;;;;;;;3.43;2.47;;;22.30;67.10;;;;;;4939190;28;20455;-84
2024/02/02 12:33:27;;;;;;;2.40;1.80;;;22.30;67.30;;;;;;4938968;28;20458;-85
2024/02/02 12:35:55;;;;;;;4.70;1.87;;;22.30;67.20;;;;;;4934771;28;26510;-87
2024/02/02 12:38:22;;;;;;;4.17;2.30;;;22.30;67.10;;;;;;4943993;28;20561;-85
2024/02/02 12:40:49;;;;;;;4.13;2.47;;;22.30;67.00;;;;;;4938073;28;20465;-87
2024/02/02 12:43:23;;;;;;;2.50;2.30;;;22.30;67.80;;;;;;4943727;28;21434;-85
2024/02/02 12:45:50;;;;;;;2.47;1.87;;;22.30;66.90;;;;;;4943338;28;20457;-85
2024/02/02 12:48:17;;;;;;;2.90;2.17;;;22.30;66.80;;;;;;4946875;28;20528;-86
2024/02/02 12:50:44;;;;;;;6.23;2.30;;;22.30;67.10;;;;;;4938304;28;20459;-86
2024/02/02 12:53:13;;;;;;;3.97;2.33;;;22.40;67.10;;;;;;4945477;28;20466;-86
2024/02/02 12:55:39;;;;;;;4.27;2.70;;;22.30;66.90;;;;;;4945289;28;20458;-85
2024/02/02 12:58:07;;;;;;;3.10;2.00;;;22.30;66.90;;;;;;4937680;28;20562;-87
2024/02/02 13:00:34;;;;;;;6.10;2.10;;;22.30;67.00;;;;;;4949650;28;20454;-85
2024/02/02 13:03:04;;;;;;;4.00;1.80;;;22.30;66.70;;;;;;4946253;28;20529;-84